createdAt,value
2022-08-10T00:03:07.670Z,1.80
2022-08-10T00:13:08.983Z,2.00
2022-08-10T00:23:11.383Z,2.13
2022-08-10T00:33:12.701Z,1.90
2022-08-10T00:43:14.064Z,2.08
2022-08-10T00:53:15.402Z,1.98
2022-08-10T01:03:16.715Z,2.10
2022-08-10T01:13:38.003Z,1.80
2022-08-10T01:23:39.355Z,2.38
2022-08-10T01:34:02.065Z,1.85
2022-08-10T01:44:03.667Z,2.40
2022-08-10T01:54:09.277Z,2.28
2022-08-10T02:04:13.533Z,2.00
2022-08-10T02:14:15.034Z,2.30
2022-08-10T02:24:16.367Z,2.35
2022-08-10T02:34:17.625Z,2.70
2022-08-10T02:45:21.245Z,2.15
2022-08-10T02:54:43.201Z,2.45
2022-08-10T03:04:55.442Z,2.15
2022-08-10T03:14:59.984Z,2.43
2022-08-10T03:25:01.319Z,2.35
2022-08-10T03:35:02.665Z,2.53
2022-08-10T03:45:04.427Z,2.53
2022-08-10T03:55:05.758Z,2.40
2022-08-10T04:05:07.082Z,2.63
2022-08-10T04:15:08.390Z,2.65
2022-08-10T04:25:09.737Z,2.60
2022-08-10T04:35:11.132Z,2.70
2022-08-10T04:45:12.454Z,2.88
2022-08-10T04:55:13.779Z,2.90
2022-08-10T05:05:15.116Z,2.92
2022-08-10T05:15:18.345Z,3.15
2022-08-10T05:25:19.850Z,2.78
2022-08-10T05:35:21.381Z,2.47
2022-08-10T05:45:22.808Z,2.95
2022-08-10T05:55:24.121Z,2.95
2022-08-10T06:05:25.472Z,3.15
2022-08-10T06:15:50.615Z,2.70
2022-08-10T06:26:11.977Z,2.70
2022-08-10T06:36:09.614Z,2.75
2022-08-10T06:46:11.055Z,2.38
2022-08-10T06:56:12.391Z,2.75
2022-08-10T07:06:13.820Z,2.15
2022-08-10T07:16:15.494Z,2.60
2022-08-10T07:26:16.796Z,2.25
2022-08-10T07:36:18.350Z,2.08
2022-08-10T07:46:19.622Z,2.67
2022-08-10T07:56:45.335Z,2.00
2022-08-10T08:06:42.362Z,1.80
2022-08-10T08:16:43.759Z,1.75
2022-08-10T08:26:46.143Z,1.73
2022-08-10T08:36:57.439Z,1.83
2022-08-10T08:47:00.904Z,1.45
2022-08-10T08:57:02.246Z,1.65
2022-08-10T09:07:07.292Z,1.80
2022-08-10T09:17:29.006Z,1.45
2022-08-10T09:27:30.349Z,1.75
2022-08-10T09:38:01.319Z,1.55
2022-08-10T09:48:02.298Z,1.85
2022-08-10T09:58:04.401Z,1.50
2022-08-10T10:08:05.732Z,1.65
2022-08-10T10:18:07.125Z,1.80
2022-08-10T10:28:08.457Z,1.70
2022-08-10T10:38:09.798Z,1.40
2022-08-10T10:48:11.116Z,1.77
2022-08-10T10:58:20.747Z,1.60
2022-08-10T11:08:29.577Z,1.70
2022-08-10T11:18:33.769Z,1.50
2022-08-10T11:28:36.849Z,1.60
2022-08-10T11:38:57.614Z,1.65
2022-08-10T11:49:03.845Z,1.75
2022-08-10T11:59:24.207Z,1.50
2022-08-10T12:10:09.247Z,1.30
2022-08-10T12:20:01.651Z,1.38
2022-08-10T12:30:04.757Z,1.40
2022-08-10T12:40:34.087Z,1.60
2022-08-10T12:50:33.445Z,1.67
2022-08-10T13:00:35.301Z,1.95
2022-08-10T13:10:36.539Z,1.60
2022-08-10T13:20:37.872Z,1.50
2022-08-10T13:30:39.213Z,1.42
2022-08-10T13:40:40.520Z,1.70
2022-08-10T13:50:41.960Z,2.40
2022-08-10T14:00:43.259Z,1.48
2022-08-10T14:11:08.807Z,1.98
2022-08-10T14:21:05.937Z,1.70
2022-08-10T14:31:07.985Z,1.83
2022-08-10T14:41:09.248Z,1.58
2022-08-10T14:51:10.643Z,1.40
2022-08-10T15:01:13.739Z,1.38
2022-08-10T15:12:12.328Z,1.58
2022-08-10T15:21:42.678Z,1.45
2022-08-10T15:32:03.654Z,2.05
2022-08-10T15:42:05.108Z,1.77
2022-08-10T15:52:06.481Z,1.58
2022-08-10T16:02:15.755Z,1.60
2022-08-10T16:12:18.331Z,2.53
2022-08-10T16:22:34.348Z,4.07
2022-08-10T16:32:38.653Z,2.72
2022-08-10T16:42:44.428Z,1.90
2022-08-10T16:52:46.373Z,1.60
2022-08-10T17:02:47.714Z,1.77
2022-08-10T17:12:49.070Z,1.40
2022-08-10T17:22:54.205Z,1.58
2022-08-10T17:32:56.089Z,1.50
2022-08-10T17:42:57.460Z,1.40
2022-08-10T17:52:58.743Z,1.50
2022-08-10T18:02:59.988Z,1.60
2022-08-10T18:13:01.406Z,1.60
2022-08-10T18:23:02.907Z,1.83
2022-08-10T18:33:04.176Z,1.83
2022-08-10T18:43:09.991Z,2.00
2022-08-10T18:53:26.887Z,2.17
2022-08-10T19:03:36.719Z,2.15
2022-08-10T19:13:38.025Z,1.90
2022-08-10T19:23:39.332Z,1.80
2022-08-10T19:33:42.663Z,2.10
2022-08-10T19:44:00.409Z,2.40
2022-08-10T19:54:03.570Z,2.28
2022-08-10T20:04:04.951Z,1.98
2022-08-10T20:14:09.383Z,2.50
2022-08-10T20:24:23.037Z,2.28
2022-08-10T20:34:24.347Z,2.20
2022-08-10T20:44:25.697Z,2.13
2022-08-10T20:54:27.064Z,2.17
2022-08-10T21:04:28.402Z,2.95
2022-08-10T21:14:29.744Z,2.53
2022-08-10T21:24:31.093Z,2.08
2022-08-10T21:34:34.304Z,2.42
2022-08-10T21:45:01.060Z,1.88
2022-08-10T21:55:24.305Z,2.35
2022-08-10T22:06:04.320Z,1.90
2022-08-10T22:16:24.595Z,2.20
2022-08-10T22:26:44.542Z,2.25
2022-08-10T22:37:20.932Z,2.47
2022-08-10T22:47:41.024Z,2.35
2022-08-10T22:58:00.949Z,2.13
2022-08-10T23:08:02.218Z,2.00
2022-08-10T23:18:22.296Z,2.30
2022-08-10T23:28:38.817Z,2.13
2022-08-10T23:38:46.169Z,2.20
2022-08-10T23:48:58.623Z,2.10
2022-08-10T23:58:59.954Z,2.35
